Time;durP1;ratioP1;P1;durP2;ratioP2;P2;SDS_P1;SDS_P2;PMS_P1;PMS_P2;Temp;Humidity;BMP_temperature;BMP_pressure;BME280_temperature;BME280_humidity;BME280_pressure;Samples;Min_cycle;Max_cycle;Signal;HPM_P1;HPM_P2
2024/04/05 00:01:41;;;;;;;10.80;7.30;;;11.50;99.90;;;;;;5062344;28;20617;-68
2024/04/05 00:04:08;;;;;;;8.63;6.47;;;11.50;99.90;;;;;;5061182;28;20201;-68
2024/04/05 00:06:35;;;;;;;8.93;6.40;;;11.50;99.90;;;;;;5061958;28;20267;-66
2024/04/05 00:09:03;;;;;;;8.87;6.50;;;11.50;99.90;;;;;;5058717;28;20194;-67
2024/04/05 00:11:31;;;;;;;9.10;5.67;;;11.50;99.90;;;;;;5062752;28;20275;-67
2024/04/05 00:13:57;;;;;;;7.83;5.67;;;11.60;99.90;;;;;;5062197;28;20284;-66
2024/04/05 00:16:24;;;;;;;10.30;7.17;;;11.60;99.90;;;;;;5058982;28;20256;-66
2024/04/05 00:18:50;;;;;;;8.83;6.50;;;11.60;99.90;;;;;;5056321;28;20272;-67
2024/04/05 00:21:17;;;;;;;6.57;5.50;;;11.60;99.90;;;;;;5058240;28;20189;-67
2024/04/05 00:23:45;;;;;;;8.07;5.90;;;11.70;99.90;;;;;;5058546;28;20317;-67
2024/04/05 00:26:13;;;;;;;10.40;5.77;;;11.70;99.90;;;;;;5055939;28;20292;-67
2024/04/05 00:28:40;;;;;;;6.63;5.50;;;11.70;99.90;;;;;;5060085;28;20188;-66
2024/04/05 00:31:08;;;;;;;5.47;4.07;;;11.70;99.90;;;;;;5060074;28;20199;-66
2024/04/05 00:33:35;;;;;;;4.00;3.53;;;11.70;99.90;;;;;;5051966;28;20258;-66
2024/04/05 00:36:02;;;;;;;4.10;3.53;;;11.70;99.90;;;;;;5057455;28;20197;-65
2024/04/05 00:38:28;;;;;;;4.57;3.50;;;11.70;99.90;;;;;;5059911;28;20356;-65
2024/04/05 00:40:56;;;;;;;4.17;3.53;;;11.70;99.90;;;;;;5060381;28;20188;-66
2024/04/05 00:43:26;;;;;;;3.47;3.17;;;11.80;99.90;;;;;;5058752;28;20192;-66
2024/04/05 00:45:54;;;;;;;3.23;2.63;;;11.80;99.90;;;;;;5059626;28;20264;-68
2024/04/05 00:48:21;;;;;;;3.07;2.77;;;11.80;99.90;;;;;;5059945;28;20681;-67
2024/04/05 00:50:51;;;;;;;2.60;2.40;;;11.90;99.90;;;;;;5061183;28;20261;-66
2024/04/05 00:53:19;;;;;;;3.77;2.43;;;11.90;99.90;;;;;;5055820;28;20209;-66
2024/04/05 00:55:48;;;;;;;2.00;1.90;;;11.90;99.90;;;;;;5055824;28;20262;-66
2024/04/05 00:58:15;;;;;;;3.20;2.50;;;11.90;99.90;;;;;;5054215;28;20210;-65
2024/04/05 01:00:44;;;;;;;2.10;2.00;;;12.00;99.90;;;;;;5057847;28;20215;-68
2024/04/05 01:03:10;;;;;;;2.30;2.10;;;12.00;99.90;;;;;;5055879;28;20197;-66
2024/04/05 01:05:39;;;;;;;2.00;1.90;;;12.10;99.90;;;;;;5056184;28;20223;-67
2024/04/05 01:08:07;;;;;;;1.77;1.67;;;12.10;99.90;;;;;;5057534;28;20216;-67
2024/04/05 01:10:35;;;;;;;1.67;1.57;;;12.10;99.90;;;;;;5059920;28;20190;-66
2024/04/05 01:13:03;;;;;;;1.83;1.73;;;12.10;99.90;;;;;;5059034;28;20273;-66
2024/04/05 01:15:31;;;;;;;1.70;1.60;;;12.10;99.90;;;;;;5057483;28;20319;-67
2024/04/05 01:17:59;;;;;;;1.50;1.40;;;12.10;99.90;;;;;;5059519;28;20302;-67
2024/04/05 01:20:29;;;;;;;1.40;1.30;;;12.20;99.90;;;;;;5059724;28;20189;-66
2024/04/05 01:22:59;;;;;;;1.40;1.30;;;12.20;99.90;;;;;;5056606;28;20660;-67
2024/04/05 01:25:28;;;;;;;1.13;1.13;;;12.20;99.90;;;;;;5059081;28;20202;-66
2024/04/05 01:27:55;;;;;;;1.30;1.20;;;12.20;99.90;;;;;;5053512;28;20201;-66
2024/04/05 01:30:22;;;;;;;1.00;1.00;;;11.40;99.90;;;;;;5058278;28;20205;-66
2024/04/05 01:32:52;;;;;;;1.10;1.10;;;12.20;99.90;;;;;;5053448;28;20201;-66
2024/04/05 01:35:19;;;;;;;1.40;1.30;;;12.10;99.90;;;;;;5055168;28;20190;-66
2024/04/05 01:37:45;;;;;;;1.57;1.33;;;12.20;99.90;;;;;;5059278;28;20213;-65
2024/04/05 01:40:12;;;;;;;1.30;1.20;;;12.20;99.90;;;;;;5061002;28;20191;-66
2024/04/05 01:42:40;;;;;;;1.20;1.20;;;12.20;99.90;;;;;;5056406;28;20230;-65
2024/04/05 01:45:07;;;;;;;1.30;1.20;;;12.20;99.90;;;;;;5058317;28;20363;-66
2024/04/05 01:47:33;;;;;;;0.90;0.90;;;12.20;99.90;;;;;;5052617;28;20197;-66
2024/04/05 01:50:01;;;;;;;1.00;1.00;;;12.20;99.90;;;;;;5057966;28;20232;-65
2024/04/05 01:52:27;;;;;;;1.03;0.80;;;12.20;99.90;;;;;;5057418;28;20196;-67
2024/04/05 01:54:56;;;;;;;1.17;1.03;;;12.20;99.90;;;;;;5057433;28;20891;-66
2024/04/05 01:57:22;;;;;;;0.90;0.90;;;12.20;99.90;;;;;;5058532;28;20292;-65
2024/04/05 01:59:52;;;;;;;0.90;0.90;;;12.20;99.90;;;;;;5054285;28;20208;-66
2024/04/05 02:02:19;;;;;;;0.70;0.70;;;12.20;99.90;;;;;;5058614;28;20231;-66
2024/04/05 02:04:46;;;;;;;0.73;0.73;;;12.20;99.90;;;;;;5058151;28;20189;-65
2024/04/05 02:07:12;;;;;;;0.50;0.50;;;12.20;99.90;;;;;;5057724;28;20428;-66
2024/04/05 02:09:40;;;;;;;0.70;0.70;;;12.20;99.90;;;;;;5061331;28;20190;-66
2024/04/05 02:12:06;;;;;;;0.77;0.77;;;12.20;99.90;;;;;;5057557;28;20185;-66
2024/04/05 02:14:34;;;;;;;0.60;0.60;;;12.20;99.90;;;;;;5059308;28;20244;-67
2024/04/05 02:17:02;;;;;;;0.60;0.60;;;12.20;99.90;;;;;;5059391;28;20279;-67
2024/04/05 02:19:29;;;;;;;0.60;0.60;;;12.20;99.90;;;;;;5056695;28;20206;-68
2024/04/05 02:21:55;;;;;;;0.63;0.63;;;12.20;99.90;;;;;;5057367;28;20216;-68
2024/04/05 02:24:22;;;;;;;0.87;0.60;;;12.20;99.90;;;;;;5056401;28;20181;-66
2024/04/05 02:26:49;;;;;;;0.70;0.70;;;12.20;99.90;;;;;;5056622;28;20194;-67
2024/04/05 02:29:16;;;;;;;0.90;0.90;;;12.30;99.90;;;;;;5059335;28;20193;-67
2024/04/05 02:31:43;;;;;;;0.90;0.83;;;12.30;99.90;;;;;;5056913;28;20194;-67
2024/04/05 02:34:11;;;;;;;0.80;0.80;;;12.30;99.90;;;;;;5054417;28;20190;-67
2024/04/05 02:36:38;;;;;;;0.80;0.80;;;12.30;99.90;;;;;;5054418;28;20212;-69
2024/04/05 02:39:06;;;;;;;0.90;0.90;;;12.30;99.90;;;;;;5058411;28;20213;-67
2024/04/05 02:41:32;;;;;;;1.50;1.00;;;12.30;99.90;;;;;;5057281;28;20200;-65
2024/04/05 02:43:59;;;;;;;1.60;1.50;;;12.30;99.90;;;;;;5056543;28;20198;-65
2024/04/05 02:46:26;;;;;;;1.80;1.70;;;12.30;99.90;;;;;;5056346;28;20192;-66
2024/04/05 02:48:54;;;;;;;1.60;1.50;;;12.30;99.90;;;;;;5055965;28;20193;-66
2024/04/05 02:51:23;;;;;;;1.47;1.10;;;12.30;99.90;;;;;;5055651;28;20197;-66
2024/04/05 02:53:50;;;;;;;0.90;0.90;;;12.30;99.90;;;;;;5056139;28;20200;-67
2024/04/05 02:56:17;;;;;;;1.20;1.10;;;12.30;99.90;;;;;;5055608;28;20677;-65
2024/04/05 02:58:44;;;;;;;1.30;1.20;;;12.20;99.90;;;;;;5056813;28;20584;-66
2024/04/05 03:01:10;;;;;;;1.30;1.17;;;12.20;99.90;;;;;;5055119;28;20664;-66
2024/04/05 03:03:37;;;;;;;1.13;1.03;;;12.20;99.90;;;;;;5054137;28;20528;-67
2024/04/05 03:06:04;;;;;;;1.10;1.10;;;12.30;99.90;;;;;;5052652;28;20205;-67
2024/04/05 03:08:33;;;;;;;0.90;0.90;;;10.40;99.90;;;;;;5058992;28;20656;-66
2024/04/05 03:10:59;;;;;;;1.80;1.30;;;12.20;99.90;;;;;;5061986;28;20263;-66
2024/04/05 03:13:26;;;;;;;1.27;1.10;;;12.20;99.90;;;;;;5054439;28;20200;-66
2024/04/05 03:15:52;;;;;;;1.97;1.23;;;12.20;99.90;;;;;;5055407;28;20338;-66
2024/04/05 03:18:20;;;;;;;1.30;1.20;;;12.20;99.90;;;;;;5054377;28;20224;-65
2024/04/05 03:20:46;;;;;;;1.00;0.90;;;12.20;99.90;;;;;;5052581;28;20282;-65
2024/04/05 03:23:14;;;;;;;1.00;1.00;;;12.20;99.90;;;;;;5055627;28;20663;-65
2024/04/05 03:25:41;;;;;;;0.80;0.80;;;12.20;99.90;;;;;;5058617;28;20197;-65
2024/04/05 03:28:08;;;;;;;0.90;0.90;;;12.20;99.90;;;;;;5050603;28;20211;-65
2024/04/05 03:30:35;;;;;;;4.10;1.70;;;12.20;99.90;;;;;;5056172;28;20696;-66
2024/04/05 03:33:02;;;;;;;1.80;1.67;;;12.30;99.90;;;;;;5055502;28;20182;-66
2024/04/05 03:35:29;;;;;;;1.40;1.30;;;12.30;99.90;;;;;;5054812;28;20532;-66
2024/04/05 03:37:56;;;;;;;0.80;0.80;;;12.30;99.90;;;;;;5052852;28;20206;-66
2024/04/05 03:40:23;;;;;;;1.10;1.10;;;12.30;99.90;;;;;;5058091;28;20274;-67
2024/04/05 03:42:51;;;;;;;1.73;1.00;;;12.30;99.90;;;;;;5052338;28;20182;-65
2024/04/05 03:45:18;;;;;;;0.63;0.63;;;12.30;99.90;;;;;;5057470;28;20214;-67
2024/04/05 03:47:44;;;;;;;1.00;0.87;;;12.20;99.90;;;;;;5056159;28;20226;-67
2024/04/05 03:50:11;;;;;;;0.80;0.80;;;12.30;99.90;;;;;;5056460;28;20587;-67
2024/04/05 03:52:37;;;;;;;0.70;0.70;;;12.30;99.90;;;;;;5054935;28;20212;-67
2024/04/05 03:55:06;;;;;;;1.10;0.90;;;12.30;99.90;;;;;;5056063;28;20201;-67
2024/04/05 03:57:32;;;;;;;0.60;0.60;;;12.30;99.90;;;;;;5049156;28;20267;-65
2024/04/05 04:00:00;;;;;;;1.20;0.70;;;12.30;99.90;;;;;;5055915;28;20651;-65
2024/04/05 04:02:27;;;;;;;3.50;2.10;;;12.30;99.90;;;;;;5056405;28;20193;-66
2024/04/05 04:04:54;;;;;;;1.50;1.40;;;12.30;99.90;;;;;;5055003;28;20706;-65
2024/04/05 04:07:20;;;;;;;1.87;1.40;;;12.30;99.90;;;;;;5053976;28;20548;-65
2024/04/05 04:09:48;;;;;;;1.20;1.10;;;12.20;99.90;;;;;;5055453;28;20190;-66
2024/04/05 04:12:14;;;;;;;1.57;1.47;;;12.20;99.90;;;;;;5057872;28;20248;-66
2024/04/05 04:14:41;;;;;;;3.07;1.20;;;12.10;99.90;;;;;;5056617;28;20225;-67
2024/04/05 04:17:09;;;;;;;1.20;1.10;;;12.10;99.90;;;;;;5056181;28;20197;-66
2024/04/05 04:19:36;;;;;;;1.83;1.10;;;12.10;99.90;;;;;;5057528;28;20204;-67
2024/04/05 04:22:03;;;;;;;1.30;1.03;;;12.00;99.90;;;;;;5061175;28;20228;-67
2024/04/05 04:24:30;;;;;;;1.90;1.20;;;12.00;99.90;;;;;;5059635;28;20683;-67
2024/04/05 04:26:56;;;;;;;1.20;1.10;;;12.00;99.90;;;;;;5059606;28;20638;-66
2024/04/05 04:29:23;;;;;;;1.10;1.10;;;11.90;99.90;;;;;;5060697;28;20270;-66
2024/04/05 04:31:50;;;;;;;1.30;1.20;;;11.90;99.90;;;;;;5059283;28;20723;-66
2024/04/05 04:34:19;;;;;;;2.30;1.33;;;11.80;99.90;;;;;;5057634;28;20785;-66
2024/04/05 04:36:45;;;;;;;2.40;1.30;;;11.80;99.90;;;;;;5059453;28;20196;-67
2024/04/05 04:39:12;;;;;;;2.53;1.23;;;11.70;99.90;;;;;;5057570;28;20192;-67
2024/04/05 04:41:38;;;;;;;1.97;1.30;;;11.70;99.90;;;;;;5058715;28;20199;-67
2024/04/05 04:44:06;;;;;;;2.40;1.37;;;11.60;99.90;;;;;;5061806;28;20752;-66
2024/04/05 04:46:32;;;;;;;7.00;1.50;;;11.60;99.90;;;;;;5059990;28;20232;-67
2024/04/05 04:49:00;;;;;;;1.60;1.27;;;11.60;99.90;;;;;;5059237;28;20181;-66
2024/04/05 04:51:29;;;;;;;1.00;1.00;;;11.60;99.90;;;;;;5058090;28;20194;-66
2024/04/05 04:53:55;;;;;;;1.20;1.10;;;11.60;99.90;;;;;;5055675;28;20632;-66
2024/04/05 04:56:22;;;;;;;1.20;1.10;;;11.60;99.90;;;;;;5059941;28;20601;-67
2024/04/05 04:58:49;;;;;;;1.40;1.30;;;11.60;99.90;;;;;;5058681;28;20983;-66
2024/04/05 05:01:17;;;;;;;1.40;1.30;;;11.60;99.90;;;;;;5057200;28;20181;-66
2024/04/05 05:03:43;;;;;;;1.83;1.27;;;11.60;99.90;;;;;;5057741;28;20695;-66
2024/04/05 05:06:10;;;;;;;1.50;1.40;;;11.70;99.90;;;;;;5059445;28;20210;-66
2024/04/05 05:08:38;;;;;;;2.03;1.40;;;11.70;99.90;;;;;;5056197;28;20196;-67
2024/04/05 05:11:05;;;;;;;1.63;1.10;;;11.70;99.90;;;;;;5059800;28;20197;-66
2024/04/05 05:13:31;;;;;;;1.93;1.10;;;11.70;99.90;;;;;;5059822;28;20521;-67
2024/04/05 05:15:59;;;;;;;2.03;1.17;;;11.70;99.90;;;;;;5058782;28;20223;-66
2024/04/05 05:18:25;;;;;;;1.33;1.00;;;11.70;99.90;;;;;;5056873;28;20221;-66
2024/04/05 05:20:52;;;;;;;1.10;1.00;;;11.70;99.90;;;;;;5059443;28;20259;-66
2024/04/05 05:23:21;;;;;;;1.77;1.20;;;11.70;99.90;;;;;;5060630;28;20714;-66
2024/04/05 05:25:52;;;;;;;0.90;0.90;;;11.80;99.90;;;;;;5058949;28;20279;-66
2024/04/05 05:28:19;;;;;;;1.27;1.00;;;11.80;99.90;;;;;;5056074;28;20190;-66
2024/04/05 05:30:46;;;;;;;1.17;1.00;;;11.80;99.90;;;;;;5056500;28;20223;-65
2024/04/05 05:33:12;;;;;;;1.27;1.17;;;11.90;99.90;;;;;;5055877;28;20212;-66
2024/04/05 05:35:39;;;;;;;0.80;0.80;;;11.90;99.90;;;;;;5057764;28;20223;-67
2024/04/05 05:38:06;;;;;;;1.03;1.03;;;11.90;99.90;;;;;;5057963;28;20209;-67
2024/04/05 05:40:33;;;;;;;0.80;0.80;;;12.00;99.90;;;;;;5059325;28;20200;-67
2024/04/05 05:43:03;;;;;;;1.20;1.00;;;12.00;99.90;;;;;;5054513;28;20543;-67
2024/04/05 05:45:30;;;;;;;0.80;0.80;;;12.00;99.90;;;;;;5056779;28;20258;-66
2024/04/05 05:47:57;;;;;;;1.40;1.17;;;12.10;99.90;;;;;;5059589;28;20194;-66
2024/04/05 05:50:25;;;;;;;2.57;1.27;;;12.10;99.90;;;;;;5059532;28;20654;-67
2024/04/05 05:52:51;;;;;;;3.73;1.50;;;12.20;99.90;;;;;;5057753;28;20211;-66
2024/04/05 05:55:22;;;;;;;1.20;1.10;;;12.30;99.90;;;;;;5060375;28;20246;-66
2024/04/05 05:57:48;;;;;;;2.67;1.37;;;12.30;99.90;;;;;;5058307;28;20298;-68
2024/04/05 06:00:17;;;;;;;1.43;1.17;;;12.30;99.90;;;;;;5057372;28;20706;-67
2024/04/05 06:02:43;;;;;;;1.07;1.07;;;12.40;99.90;;;;;;5056233;28;20200;-66
2024/04/05 06:05:12;;;;;;;1.57;1.47;;;12.40;99.90;;;;;;5054125;28;20246;-68
2024/04/05 06:07:38;;;;;;;1.40;1.20;;;12.50;99.90;;;;;;5023162;28;20207;-68
2024/04/05 06:10:07;;;;;;;1.83;1.27;;;12.50;99.90;;;;;;5046516;28;20205;-68
2024/04/05 06:12:39;;;;;;;1.30;1.20;;;12.60;99.90;;;;;;5052373;28;20415;-69
2024/04/05 06:15:07;;;;;;;1.40;1.30;;;12.60;99.90;;;;;;5048713;28;20229;-69
2024/04/05 06:17:35;;;;;;;1.60;1.50;;;12.60;99.90;;;;;;5051604;28;20207;-68
2024/04/05 06:20:06;;;;;;;1.37;1.27;;;12.70;99.90;;;;;;5056279;28;20204;-68
2024/04/05 06:22:33;;;;;;;1.10;1.10;;;12.70;99.90;;;;;;5050643;28;20604;-67
2024/04/05 06:25:01;;;;;;;2.83;1.20;;;12.70;99.90;;;;;;5041626;28;20216;-68
2024/04/05 06:27:27;;;;;;;1.20;1.10;;;12.80;99.90;;;;;;5052770;28;20204;-68
2024/04/05 06:29:56;;;;;;;1.60;1.00;;;12.80;99.90;;;;;;5051892;28;20195;-68
2024/04/05 06:32:23;;;;;;;1.07;0.90;;;12.80;99.90;;;;;;5047360;28;20228;-69
2024/04/05 06:34:51;;;;;;;0.97;0.97;;;12.80;99.90;;;;;;5043427;28;20198;-68
2024/04/05 06:37:18;;;;;;;1.40;1.30;;;12.80;99.90;;;;;;5054125;28;20193;-68
2024/04/05 06:39:45;;;;;;;2.87;1.37;;;12.80;99.90;;;;;;5055410;28;20285;-68
2024/04/05 06:42:12;;;;;;;1.60;1.37;;;12.90;99.90;;;;;;5053083;28;20201;-69
2024/04/05 06:44:40;;;;;;;2.13;1.33;;;12.90;99.90;;;;;;5051812;28;20221;-69
2024/04/05 06:47:06;;;;;;;1.37;1.27;;;13.00;99.90;;;;;;5054317;28;20280;-69
2024/04/05 06:49:34;;;;;;;2.40;1.50;;;13.00;99.90;;;;;;5054988;28;20181;-68
2024/04/05 06:52:04;;;;;;;2.00;1.50;;;13.00;99.90;;;;;;5047873;28;20555;-67
2024/04/05 06:54:32;;;;;;;1.30;1.20;;;13.00;99.90;;;;;;5050162;28;20182;-66
2024/04/05 06:56:58;;;;;;;2.70;1.73;;;13.10;99.90;;;;;;5047216;28;20190;-67
2024/04/05 06:59:25;;;;;;;1.37;1.13;;;13.10;99.90;;;;;;5051318;28;20778;-68
2024/04/05 07:01:53;;;;;;;1.10;1.10;;;13.10;99.90;;;;;;5044017;28;20664;-67
2024/04/05 07:04:23;;;;;;;2.50;1.20;;;13.20;99.90;;;;;;5046348;28;20683;-68
2024/04/05 07:06:49;;;;;;;1.10;1.10;;;13.30;99.90;;;;;;5049583;28;21104;-67
2024/04/05 07:09:21;;;;;;;2.07;1.30;;;13.30;99.90;;;;;;5047835;28;20186;-68
2024/04/05 07:11:48;;;;;;;1.07;1.07;;;13.40;99.90;;;;;;5049693;28;20214;-67
2024/04/05 07:14:17;;;;;;;4.90;1.50;;;13.40;99.90;;;;;;5051651;28;20192;-67
2024/04/05 07:16:43;;;;;;;1.70;1.10;;;13.40;99.90;;;;;;5048576;28;20624;-66
2024/04/05 07:19:11;;;;;;;1.80;1.30;;;13.50;99.90;;;;;;5046909;28;20214;-66
2024/04/05 07:21:37;;;;;;;1.87;1.40;;;13.60;99.90;;;;;;5048615;28;20219;-66
2024/04/05 07:24:04;;;;;;;1.30;1.20;;;13.60;99.90;;;;;;5047107;28;20194;-65
2024/04/05 07:26:32;;;;;;;1.27;1.17;;;13.60;99.90;;;;;;5042504;28;20725;-67
2024/04/05 07:29:00;;;;;;;2.00;1.30;;;13.70;99.90;;;;;;5038564;28;20686;-67
2024/04/05 07:31:26;;;;;;;1.43;1.20;;;13.70;99.90;;;;;;5044889;28;20194;-68
2024/04/05 07:33:54;;;;;;;2.53;1.17;;;13.70;99.90;;;;;;5038592;28;20253;-66
2024/04/05 07:36:25;;;;;;;2.97;1.40;;;13.80;99.90;;;;;;5042867;28;20207;-67
2024/04/05 07:38:55;;;;;;;2.00;1.30;;;13.90;99.90;;;;;;5050293;28;20206;-66
2024/04/05 07:41:22;;;;;;;1.67;1.43;;;14.00;99.90;;;;;;5047017;28;20276;-68
2024/04/05 07:43:52;;;;;;;2.40;1.13;;;14.10;99.90;;;;;;5047451;28;20245;-67
2024/04/05 07:46:19;;;;;;;1.43;1.33;;;14.30;99.90;;;;;;5045753;28;20251;-66
2024/04/05 07:48:47;;;;;;;1.90;1.23;;;14.30;99.90;;;;;;5046655;28;20191;-67
2024/04/05 07:51:13;;;;;;;1.30;1.20;;;14.40;99.90;;;;;;5059759;28;20199;-67
2024/04/05 07:53:41;;;;;;;1.20;1.10;;;14.40;99.90;;;;;;5054898;28;20195;-66
2024/04/05 07:56:07;;;;;;;2.70;1.20;;;14.50;99.90;;;;;;5051316;28;20670;-67
2024/04/05 07:58:34;;;;;;;2.57;1.70;;;14.60;99.90;;;;;;5045624;28;20226;-68
2024/04/05 08:01:07;;;;;;;1.37;1.20;;;14.70;99.90;;;;;;5046989;28;20643;-67
2024/04/05 08:03:34;;;;;;;2.03;1.40;;;14.80;99.90;;;;;;5061692;28;20196;-67
2024/04/05 08:06:01;;;;;;;2.53;1.00;;;14.90;99.90;;;;;;5046081;28;20199;-66
2024/04/05 08:08:28;;;;;;;1.50;1.23;;;14.90;99.90;;;;;;5049544;28;20653;-66
2024/04/05 08:11:00;;;;;;;2.23;1.30;;;14.90;99.90;;;;;;5051295;28;20202;-67
2024/04/05 08:13:28;;;;;;;1.53;1.20;;;15.00;99.90;;;;;;5043762;28;20188;-67
2024/04/05 08:15:55;;;;;;;2.20;2.00;;;15.10;99.90;;;;;;5047041;28;20284;-66
2024/04/05 08:18:23;;;;;;;1.60;1.50;;;15.10;99.90;;;;;;5050092;28;20205;-67
2024/04/05 08:20:50;;;;;;;2.17;1.90;;;15.10;99.90;;;;;;5049565;28;20229;-67
2024/04/05 08:23:17;;;;;;;1.80;1.63;;;15.20;99.90;;;;;;5048516;28;20680;-67
2024/04/05 08:25:43;;;;;;;3.37;1.70;;;15.20;99.90;;;;;;5051153;28;20204;-67
2024/04/05 08:28:12;;;;;;;1.90;1.80;;;15.20;99.90;;;;;;5050513;28;20299;-66
2024/04/05 08:30:38;;;;;;;3.27;2.03;;;15.20;99.90;;;;;;5050934;28;20580;-67
2024/04/05 08:33:09;;;;;;;2.30;1.73;;;15.10;99.90;;;;;;5048141;28;20204;-66
2024/04/05 08:35:36;;;;;;;1.77;1.67;;;15.10;99.90;;;;;;5046592;28;20196;-67
2024/04/05 08:38:05;;;;;;;2.00;1.77;;;15.00;99.90;;;;;;5049184;28;20767;-67
2024/04/05 08:40:32;;;;;;;6.90;2.17;;;14.90;99.90;;;;;;5050608;28;20284;-67
2024/04/05 08:43:01;;;;;;;1.70;1.60;;;14.90;99.90;;;;;;5047302;28;20201;-66
2024/04/05 08:45:31;;;;;;;1.87;1.77;;;14.90;99.90;;;;;;5051027;28;20197;-67
2024/04/05 08:48:04;;;;;;;1.70;1.60;;;14.90;99.90;;;;;;5049183;28;20254;-66
2024/04/05 08:50:32;;;;;;;2.50;1.47;;;15.00;99.90;;;;;;5049493;28;20403;-67
2024/04/05 08:53:00;;;;;;;1.60;1.50;;;14.90;99.90;;;;;;5045379;28;20200;-67
2024/04/05 08:55:30;;;;;;;1.90;1.70;;;14.90;99.90;;;;;;5053114;28;20996;-67
2024/04/05 08:57:58;;;;;;;1.60;1.50;;;14.90;99.90;;;;;;5051238;28;20608;-66
2024/04/05 09:00:27;;;;;;;1.50;1.40;;;14.80;99.90;;;;;;5049189;28;20648;-67
2024/04/05 09:02:54;;;;;;;2.77;1.80;;;14.80;99.90;;;;;;5047620;28;20635;-67
2024/04/05 09:05:22;;;;;;;4.87;1.63;;;14.70;99.90;;;;;;5053203;28;20193;-67
2024/04/05 09:07:50;;;;;;;2.63;1.40;;;14.70;99.90;;;;;;5048451;28;20201;-66
2024/04/05 09:10:18;;;;;;;1.70;1.07;;;14.70;99.90;;;;;;5050466;28;20705;-66
2024/04/05 09:12:49;;;;;;;3.60;1.40;;;14.70;99.90;;;;;;5048201;28;20197;-67
2024/04/05 09:15:19;;;;;;;5.60;1.87;;;14.70;99.90;;;;;;5048908;28;20225;-67
2024/04/05 09:17:46;;;;;;;2.07;1.13;;;14.80;99.90;;;;;;5048551;28;20288;-67
2024/04/05 09:20:19;;;;;;;1.60;1.27;;;14.80;99.90;;;;;;5049678;28;20328;-67
2024/04/05 09:22:48;;;;;;;3.00;1.40;;;14.80;99.90;;;;;;5046471;28;20464;-67
2024/04/05 09:25:19;;;;;;;2.63;1.57;;;14.80;99.90;;;;;;5050503;28;20197;-66
2024/04/05 09:27:48;;;;;;;2.27;1.30;;;14.80;99.90;;;;;;5047128;28;20197;-68
2024/04/05 09:30:15;;;;;;;3.63;1.43;;;14.80;99.90;;;;;;5049574;28;20216;-67
2024/04/05 09:32:47;;;;;;;27.87;2.77;;;14.80;99.90;;;;;;5046892;28;20661;-67
2024/04/05 09:35:18;;;;;;;3.37;1.40;;;14.70;99.90;;;;;;5047624;28;20272;-66
2024/04/05 09:37:46;;;;;;;2.67;1.67;;;14.70;99.90;;;;;;5048143;28;20207;-66
2024/04/05 09:40:16;;;;;;;2.57;1.40;;;14.70;99.90;;;;;;5049726;28;20279;-65
2024/04/05 09:42:44;;;;;;;2.63;1.33;;;14.70;99.90;;;;;;5039243;28;20610;-66
2024/04/05 09:45:12;;;;;;;1.90;1.40;;;14.60;99.90;;;;;;5048991;28;20192;-66
2024/04/05 09:47:40;;;;;;;3.47;1.40;;;14.70;99.90;;;;;;5046189;28;20300;-66
2024/04/05 09:50:09;;;;;;;1.63;1.17;;;14.70;99.90;;;;;;5048707;28;20211;-66
2024/04/05 09:52:40;;;;;;;4.00;1.43;;;14.80;99.90;;;;;;5052245;28;20204;-66
2024/04/05 09:55:12;;;;;;;2.03;1.33;;;14.90;99.90;;;;;;5051675;28;20189;-67
2024/04/05 09:57:39;;;;;;;1.37;1.23;;;15.00;99.90;;;;;;5047322;28;20210;-65
2024/04/05 10:00:15;;;;;;;4.60;1.57;;;15.20;99.90;;;;;;5058877;28;20295;-67
2024/04/05 10:02:46;;;;;;;2.77;1.50;;;15.30;99.90;;;;;;5047149;28;20190;-66
2024/04/05 10:05:27;;;;;;;2.07;1.20;;;15.40;99.90;;;;;;5043044;28;20194;-66
2024/04/05 10:07:55;;;;;;;2.80;1.23;;;15.50;99.90;;;;;;5048163;28;20211;-66
2024/04/05 10:10:29;;;;;;;1.27;1.13;;;15.50;99.90;;;;;;5049769;28;20208;-67
2024/04/05 10:12:57;;;;;;;2.97;1.43;;;15.50;99.90;;;;;;5046616;28;20200;-66
2024/04/05 10:15:27;;;;;;;2.17;1.20;;;15.60;99.90;;;;;;5047446;28;20253;-67
2024/04/05 10:17:57;;;;;;;6.83;1.73;;;15.70;99.90;;;;;;5048467;28;20621;-66
2024/04/05 10:20:24;;;;;;;1.43;1.13;;;15.90;99.90;;;;;;5048109;28;20190;-67
2024/04/05 10:22:59;;;;;;;1.40;1.30;;;16.10;99.90;;;;;;5047534;28;20278;-67
2024/04/05 10:25:26;;;;;;;1.53;1.20;;;16.20;99.90;;;;;;5046247;28;20201;-66
2024/04/05 10:27:53;;;;;;;2.00;1.20;;;16.20;99.90;;;;;;5048244;28;20667;-66
2024/04/05 10:30:22;;;;;;;1.43;1.20;;;16.10;99.90;;;;;;5048822;28;20683;-67
2024/04/05 10:32:58;;;;;;;1.90;1.30;;;16.10;99.90;;;;;;5045601;28;20213;-67
2024/04/05 10:35:26;;;;;;;2.00;1.30;;;16.10;99.90;;;;;;5046334;28;20186;-68
2024/04/05 10:37:59;;;;;;;2.40;1.20;;;16.20;99.90;;;;;;5030455;28;20194;-67
2024/04/05 10:40:26;;;;;;;1.70;0.90;;;16.30;99.90;;;;;;5044354;28;20189;-66
2024/04/05 10:42:54;;;;;;;1.87;1.00;;;16.40;99.90;;;;;;5046991;28;20228;-66
2024/04/05 10:45:23;;;;;;;1.83;1.27;;;16.50;99.90;;;;;;5050218;28;20190;-66
2024/04/05 10:47:52;;;;;;;2.23;1.43;;;16.70;99.90;;;;;;5046497;28;20202;-67
2024/04/05 10:50:22;;;;;;;2.90;0.97;;;16.80;99.90;;;;;;5047143;28;20273;-66
2024/04/05 10:52:49;;;;;;;6.03;3.80;;;17.00;99.80;;;;;;5046349;28;20694;-67
2024/04/05 10:55:18;;;;;;;2.67;1.90;;;17.10;98.90;;;;;;5041952;28;20205;-67
2024/04/05 10:57:44;;;;;;;1.87;1.33;;;17.10;98.60;;;;;;5048022;28;20204;-67
2024/04/05 11:00:12;;;;;;;1.20;1.10;;;17.10;97.60;;;;;;5045568;28;20216;-66
2024/04/05 11:02:40;;;;;;;2.63;0.80;;;17.10;97.30;;;;;;5046858;28;20660;-67
2024/04/05 11:05:10;;;;;;;3.00;1.00;;;17.20;97.60;;;;;;5043456;28;20190;-68
2024/04/05 11:07:38;;;;;;;5.17;1.30;;;17.20;96.70;;;;;;5041097;28;20557;-67
2024/04/05 11:10:16;;;;;;;2.20;1.00;;;17.10;95.90;;;;;;5047314;28;20208;-67
2024/04/05 11:12:44;;;;;;;3.90;1.10;;;17.00;95.90;;;;;;5045288;28;20214;-67
2024/04/05 11:15:11;;;;;;;3.30;1.10;;;17.00;96.00;;;;;;5048532;28;20226;-67
2024/04/05 11:17:37;;;;;;;3.97;1.17;;;17.00;95.90;;;;;;5046986;28;20198;-67
2024/04/05 11:20:09;;;;;;;3.13;0.90;;;16.90;96.00;;;;;;5047358;28;20317;-68
2024/04/05 11:22:37;;;;;;;2.17;0.83;;;16.90;96.10;;;;;;5051063;28;20194;-67
2024/04/05 11:25:06;;;;;;;1.13;0.80;;;16.80;96.20;;;;;;5050888;28;20190;-67
2024/04/05 11:27:32;;;;;;;1.80;1.00;;;16.80;96.40;;;;;;5057359;28;20726;-67
2024/04/05 11:30:03;;;;;;;1.73;1.00;;;16.80;96.60;;;;;;5054789;28;20637;-67
2024/04/05 11:32:31;;;;;;;0.97;0.80;;;16.80;96.60;;;;;;5051059;28;20309;-67
2024/04/05 11:35:00;;;;;;;1.53;0.80;;;16.90;96.60;;;;;;5052552;28;20198;-67
2024/04/05 11:37:28;;;;;;;1.53;0.80;;;17.00;96.80;;;;;;5049467;28;20571;-67
2024/04/05 11:39:57;;;;;;;0.83;0.70;;;17.10;96.90;;;;;;5052856;28;20290;-67
2024/04/05 11:42:23;;;;;;;0.73;0.70;;;17.10;96.80;;;;;;5052850;28;20201;-67
2024/04/05 11:44:51;;;;;;;2.93;0.90;;;17.20;96.80;;;;;;5008709;28;20433;-66
2024/04/05 11:47:21;;;;;;;1.67;1.00;;;17.30;96.00;;;;;;5049647;28;20294;-67
2024/04/05 11:49:48;;;;;;;3.03;1.00;;;17.30;95.90;;;;;;5047272;28;20198;-67
2024/04/05 11:52:14;;;;;;;4.07;1.10;;;17.20;95.60;;;;;;5053188;28;20624;-66
2024/04/05 11:54:43;;;;;;;2.23;1.10;;;17.20;95.50;;;;;;5054880;28;20187;-67
2024/04/05 11:57:14;;;;;;;1.43;1.10;;;17.10;95.60;;;;;;5051335;28;20198;-67
2024/04/05 11:59:41;;;;;;;1.20;1.10;;;17.00;95.70;;;;;;5057155;28;20219;-66
2024/04/05 12:02:09;;;;;;;6.37;2.43;;;16.90;95.90;;;;;;5058785;28;20208;-66
2024/04/05 12:04:36;;;;;;;2.63;1.60;;;16.80;95.90;;;;;;5053384;28;20207;-67
2024/04/05 12:07:04;;;;;;;2.40;1.37;;;16.70;96.10;;;;;;5050730;28;20213;-68
2024/04/05 12:09:31;;;;;;;1.17;0.93;;;16.60;96.30;;;;;;5055320;28;20224;-66
2024/04/05 12:11:57;;;;;;;2.83;1.50;;;16.60;96.60;;;;;;5055192;28;20276;-67
2024/04/05 12:14:28;;;;;;;1.03;1.00;;;16.50;96.80;;;;;;5054336;28;20229;-67
2024/04/05 12:16:54;;;;;;;1.70;1.13;;;16.60;97.00;;;;;;5049991;28;20529;-67
2024/04/05 12:19:22;;;;;;;2.70;1.50;;;16.70;97.10;;;;;;5051221;28;20205;-67
2024/04/05 12:21:48;;;;;;;2.90;1.50;;;16.70;96.80;;;;;;5050064;28;20221;-67
2024/04/05 12:24:15;;;;;;;2.47;1.30;;;16.70;96.80;;;;;;5030791;28;20195;-68
2024/04/05 12:26:41;;;;;;;3.63;1.70;;;16.70;97.00;;;;;;5052309;28;20211;-66
2024/04/05 12:29:09;;;;;;;3.00;1.20;;;16.60;97.00;;;;;;5053578;28;20199;-66
2024/04/05 12:31:36;;;;;;;3.10;1.30;;;16.60;97.00;;;;;;5053232;28;20583;-67
2024/04/05 12:34:04;;;;;;;2.30;1.30;;;16.60;97.20;;;;;;5049588;28;20195;-68
2024/04/05 12:36:30;;;;;;;4.40;1.30;;;16.60;97.30;;;;;;5059379;28;20286;-68
2024/04/05 12:38:58;;;;;;;2.93;1.43;;;16.60;97.40;;;;;;5052828;28;20273;-67
2024/04/05 12:41:24;;;;;;;3.10;1.20;;;16.60;97.50;;;;;;5056202;28;20487;-67
2024/04/05 12:43:51;;;;;;;5.97;1.53;;;16.60;97.70;;;;;;5056442;28;20203;-67
2024/04/05 12:46:17;;;;;;;3.53;1.50;;;16.70;97.80;;;;;;5049374;28;20243;-67
2024/04/05 12:48:46;;;;;;;4.20;1.50;;;16.70;97.80;;;;;;5049243;28;20231;-67